Point Mugu Naval Air Station (Naval Base Ventura Co)
KNTD : now visible

Airfield :











YOU CAN JOIN US ON...

 
LOGIN :

Register | Disclaimer

   EN    FR    IT 

 









Legend :    VFR   Marginal VFR   IFR   Intensive IFR   Very Intensive IFR
Visi :
Ceiling :
>= 8 km
>= 3000ft
5 to 8 km
1000 to 3000 ft
1500m to 5 km
500 to 1000 ft
800 to 1500m
200 to 500 ft
< 800m
< 200 ft
Symbols :   Thunderstorms  Fog  Heavy snow  Heavy precipitations  Wind > 20 kt






- Airport Elevation : 13 ft


KNTD - Point Mugu Naval Air Station (Naval Base Ventura Co)

CURRENT METAR :
  • 090952Z AUTO 28004KT$qSM OVC018 14/10 A2997 RMK AO2 SLP149 T01390100 CHINO N VISNO N $

EXPIRED METARs :
  • 090852Z AUTO 29004KT 10SM BKN019 OVC027 14/10 A2997 RMK AO2 SLP150 T01440100 58009 CHINO N VISNO N $
  • 090752Z AUTO 29006KT 10SM OVC018 14/10 A2999 RMK AO2 SLP155 T01390100 401780078 CHINO N VISNO N $

TAF TAF KNTD
Valid from the 09 at 07:00 until the 10 at 07:00 UTC


0907/1007 27006KT 9999 FEW015 BKN020 BKN035 QNH2991INS
FM091400 27013KT 9999 VCSH BKN015 BKN030 OVC050 621008 541008 QNH2994INS
TEMPO 0914/0918 8000 -SHRA BR BKN009 BKN025 OVC050
BECMG 0918/0920 28015G25KT 8000 -SHRA BR BKN015 BKN030 620809 621701 541206 QNH2987INS
FM100100 28013KT 9999 FEW010 600000 521404 QNH2988INS AUTOMATED SENSOR METWATCH 0907 TIL 0914 T09/0913Z T16/0923Z FS30173
KZLA FIR / North America



MET'MAP, your aeronautical weather chart ! - Copyright ORBIFLY December 2007 - Disclaimer

ORBIFLY MET'MAP TEAM :

Programming & Development : Alexandra Zaïnal
Concept & original design : Baudouin d'Aumeries
Assistance for programming : Marc-Olivier Méhu
Technical & hardware support : Manuel Goepfert

Contact : metmap@orbifly.com




SOURCES & CREDITS :

   NOAA       Earth
Advisory